Time;durP1;ratioP1;P1;durP2;ratioP2;P2;SDS_P1;SDS_P2;PMS_P1;PMS_P2;Temp;Humidity;BMP_temperature;BMP_pressure;BME280_temperature;BME280_humidity;BME280_pressure;Samples;Min_cycle;Max_cycle;Signal;HPM_P1;HPM_P2
2022/05/14 00:00:46;;;;;;;0.90;0.90;;;;;;;;;;5058870;28;20205;-83
2022/05/14 00:03:14;;;;;;;1.85;0.80;;;;;;;;;;5057856;28;20213;-83
2022/05/14 00:05:42;;;;;;;3.88;2.25;;;;;;;;;;5058215;28;20402;-83
2022/05/14 00:08:09;;;;;;;0.90;0.80;;;;;;;;;;5059055;28;20197;-83
2022/05/14 00:13:03;;;;;;;1.50;1.40;;;;;;;;;;5058726;28;20221;-84
2022/05/14 00:13:25;;;;;;;1.80;1.20;;;;;;;;;;5058428;28;20261;-83
2022/05/14 00:15:54;;;;;;;1.20;1.10;;;;;;;;;;5058271;28;20209;-84
2022/05/14 00:18:23;;;;;;;1.15;1.00;;;;;;;;;;5058847;28;20202;-84
2022/05/14 00:20:51;;;;;;;1.55;1.08;;;;;;;;;;5059499;28;20205;-83
2022/05/14 00:23:18;;;;;;;1.73;1.52;;;;;;;;;;5058057;28;20212;-83
2022/05/14 00:25:46;;;;;;;1.75;1.20;;;;;;;;;;5058384;28;20202;-83
2022/05/14 00:28:14;;;;;;;2.47;1.38;;;;;;;;;;5057739;28;20236;-83
2022/05/14 00:30:43;;;;;;;1.10;1.00;;;;;;;;;;5058319;28;20260;-84
2022/05/14 00:33:10;;;;;;;1.83;1.25;;;;;;;;;;5057185;28;20204;-83
2022/05/14 00:35:38;;;;;;;1.30;0.98;;;;;;;;;;5058301;28;20198;-83
2022/05/14 00:38:08;;;;;;;1.40;1.30;;;;;;;;;;5058559;28;20201;-83
2022/05/14 00:40:39;;;;;;;1.70;1.38;;;;;;;;;;5058431;28;20651;-84
2022/05/14 00:43:07;;;;;;;1.55;1.20;;;;;;;;;;5057435;28;20194;-83
2022/05/14 00:45:46;;;;;;;1.13;1.13;;;;;;;;;;5058277;28;20194;-83
2022/05/14 00:48:13;;;;;;;1.48;1.13;;;;;;;;;;5056632;28;20208;-83
2022/05/14 00:50:44;;;;;;;1.05;1.05;;;;;;;;;;5057768;28;20706;-83
2022/05/14 00:53:16;;;;;;;1.92;1.42;;;;;;;;;;5057226;28;20202;-83
2022/05/14 00:55:46;;;;;;;1.33;1.20;;;;;;;;;;5057334;28;20212;-84
2022/05/14 00:58:17;;;;;;;1.00;1.00;;;;;;;;;;5056919;28;20669;-84
2022/05/14 01:00:46;;;;;;;1.30;1.20;;;;;;;;;;5058075;28;20225;-83
2022/05/14 01:03:14;;;;;;;2.25;1.42;;;;;;;;;;5056619;28;20217;-83
2022/05/14 01:05:42;;;;;;;1.38;1.27;;;;;;;;;;5057274;28;20220;-84
2022/05/14 01:08:09;;;;;;;2.25;1.02;;;;;;;;;;5057351;28;20236;-83
2022/05/14 01:10:44;;;;;;;2.47;1.38;;;;;;;;;;5056845;28;20651;-84
2022/05/14 01:13:11;;;;;;;1.30;1.20;;;;;;;;;;5056683;28;20212;-83
2022/05/14 01:15:45;;;;;;;1.30;1.20;;;;;;;;;;5056413;28;20212;-84
2022/05/14 01:18:14;;;;;;;1.10;1.10;;;;;;;;;;5056690;28;20205;-85
2022/05/14 01:20:42;;;;;;;1.65;1.55;;;;;;;;;;5056805;28;20283;-84
2022/05/14 01:23:23;;;;;;;1.95;1.38;;;;;;;;;;5056366;28;20220;-83
2022/05/14 01:28:55;;;;;;;3.10;1.25;;;;;;;;;;5050939;28;20581;-84
2022/05/14 01:31:23;;;;;;;1.30;1.20;;;;;;;;;;5056601;28;20233;-84
2022/05/14 01:33:50;;;;;;;1.30;1.20;;;;;;;;;;5055792;28;20417;-83
2022/05/14 01:36:17;;;;;;;2.10;1.17;;;;;;;;;;5056298;28;20679;-83
2022/05/14 01:38:45;;;;;;;1.30;1.17;;;;;;;;;;5056643;28;20221;-83
2022/05/14 01:41:13;;;;;;;1.40;1.10;;;;;;;;;;5057048;28;20225;-84
2022/05/14 01:43:41;;;;;;;1.95;1.27;;;;;;;;;;5055996;28;20629;-83
2022/05/14 01:46:08;;;;;;;1.10;1.00;;;;;;;;;;5056908;28;20210;-83
2022/05/14 01:48:36;;;;;;;1.38;1.00;;;;;;;;;;5056413;28;20197;-84
2022/05/14 01:51:04;;;;;;;1.30;1.20;;;;;;;;;;5056767;28;20198;-83
2022/05/14 01:53:31;;;;;;;1.10;1.00;;;;;;;;;;5056361;28;20580;-83
2022/05/14 01:55:58;;;;;;;1.05;1.00;;;;;;;;;;5056403;28;20201;-83
2022/05/14 01:58:39;;;;;;;1.10;1.00;;;;;;;;;;5057020;28;20227;-83
2022/05/14 02:01:19;;;;;;;1.02;0.98;;;;;;;;;;5056223;28;20224;-83
2022/05/14 02:03:49;;;;;;;0.80;0.80;;;;;;;;;;5056145;28;20201;-84
2022/05/14 02:06:17;;;;;;;0.93;0.90;;;;;;;;;;5056275;28;20202;-83
2022/05/14 02:08:45;;;;;;;1.75;1.30;;;;;;;;;;5055708;28;20637;-84
2022/05/14 02:11:14;;;;;;;1.10;1.00;;;;;;;;;;5055779;28;20244;-83
2022/05/14 02:13:44;;;;;;;2.97;1.52;;;;;;;;;;5055758;28;20226;-83
2022/05/14 02:16:12;;;;;;;2.10;1.10;;;;;;;;;;5055195;28;20201;-84
2022/05/14 02:18:39;;;;;;;1.67;1.13;;;;;;;;;;5056797;28;20204;-83
2022/05/14 02:21:07;;;;;;;2.05;1.50;;;;;;;;;;5056010;28;20233;-83
2022/05/14 02:23:38;;;;;;;1.52;1.42;;;;;;;;;;5057833;28;20206;-83
2022/05/14 02:26:05;;;;;;;2.45;1.30;;;;;;;;;;5059700;28;20833;-83
2022/05/14 02:28:32;;;;;;;1.05;1.05;;;;;;;;;;5059789;28;20201;-83
2022/05/14 02:31:01;;;;;;;1.27;1.17;;;;;;;;;;5059170;28;20206;-83
2022/05/14 02:33:29;;;;;;;2.60;1.23;;;;;;;;;;5058261;28;20224;-83
2022/05/14 02:35:57;;;;;;;1.30;1.20;;;;;;;;;;5060373;28;20190;-83
2022/05/14 02:38:26;;;;;;;1.15;1.10;;;;;;;;;;5059440;28;20197;-84
2022/05/14 02:40:54;;;;;;;1.23;1.10;;;;;;;;;;5059865;28;20320;-84
2022/05/14 02:43:21;;;;;;;0.98;0.98;;;;;;;;;;5059212;28;20206;-83
2022/05/14 02:45:48;;;;;;;3.08;1.00;;;;;;;;;;5058887;28;20210;-83
2022/05/14 02:48:17;;;;;;;1.35;1.25;;;;;;;;;;5059146;28;20209;-83
2022/05/14 02:50:44;;;;;;;3.20;1.10;;;;;;;;;;5059166;28;20767;-84
2022/05/14 02:53:12;;;;;;;1.33;1.23;;;;;;;;;;5059094;28;20202;-83
2022/05/14 02:55:39;;;;;;;1.73;1.15;;;;;;;;;;5059462;28;20213;-83
2022/05/14 02:58:07;;;;;;;1.48;0.90;;;;;;;;;;5057950;28;20252;-83
2022/05/14 03:00:34;;;;;;;1.77;0.90;;;;;;;;;;5059539;28;20701;-84
2022/05/14 03:03:01;;;;;;;0.82;0.82;;;;;;;;;;5058724;28;20206;-83
2022/05/14 03:05:30;;;;;;;1.00;1.00;;;;;;;;;;5058790;28;20201;-83
2022/05/14 03:07:57;;;;;;;2.33;1.70;;;;;;;;;;5059688;28;20201;-83
2022/05/14 03:10:25;;;;;;;2.05;1.85;;;;;;;;;;5060355;28;20225;-83
2022/05/14 03:12:52;;;;;;;1.45;1.30;;;;;;;;;;5059128;28;20205;-83
2022/05/14 03:15:19;;;;;;;1.67;1.20;;;;;;;;;;5060144;28;20272;-83
2022/05/14 03:17:46;;;;;;;2.10;1.60;;;;;;;;;;5060412;28;20205;-84
2022/05/14 03:20:14;;;;;;;1.17;1.08;;;;;;;;;;5059943;28;20229;-83
2022/05/14 03:22:43;;;;;;;1.23;1.13;;;;;;;;;;5060009;28;20693;-83
2022/05/14 03:25:11;;;;;;;4.28;1.63;;;;;;;;;;5060230;28;20212;-83
2022/05/14 03:27:39;;;;;;;1.52;1.30;;;;;;;;;;5060734;28;20220;-83
2022/05/14 03:30:08;;;;;;;1.70;1.60;;;;;;;;;;5060670;28;20229;-84
2022/05/14 03:32:35;;;;;;;1.20;1.13;;;;;;;;;;5060395;28;20208;-84
2022/05/14 03:35:12;;;;;;;1.40;1.30;;;;;;;;;;5060084;28;20206;-83
2022/05/14 03:37:39;;;;;;;2.28;1.67;;;;;;;;;;5059368;28;20201;-84
2022/05/14 03:40:10;;;;;;;1.83;1.52;;;;;;;;;;5060106;28;20240;-83
2022/05/14 03:42:38;;;;;;;3.20;2.13;;;;;;;;;;5058483;28;20276;-84
2022/05/14 03:45:06;;;;;;;1.42;1.23;;;;;;;;;;5059323;28;20213;-84
2022/05/14 03:47:34;;;;;;;1.77;1.40;;;;;;;;;;5060016;28;20206;-83
2022/05/14 03:50:01;;;;;;;1.75;1.65;;;;;;;;;;5058127;28;20410;-84
2022/05/14 03:52:28;;;;;;;1.60;1.50;;;;;;;;;;5057735;28;20680;-83
2022/05/14 03:54:56;;;;;;;3.05;1.60;;;;;;;;;;5058129;28;20208;-84
2022/05/14 03:57:25;;;;;;;2.80;1.80;;;;;;;;;;5056784;28;20208;-84
2022/05/14 03:59:52;;;;;;;1.50;1.40;;;;;;;;;;5060853;28;20240;-83
2022/05/14 04:02:20;;;;;;;4.82;2.65;;;;;;;;;;5062408;28;20664;-85
2022/05/14 04:04:48;;;;;;;1.58;1.48;;;;;;;;;;5058322;28;20213;-83
2022/05/14 04:07:15;;;;;;;3.13;2.13;;;;;;;;;;5058543;28;20819;-84
2022/05/14 04:09:43;;;;;;;3.97;3.05;;;;;;;;;;5059660;28;20724;-83
2022/05/14 04:12:11;;;;;;;2.47;2.33;;;;;;;;;;5059033;28;20221;-85
2022/05/14 04:14:40;;;;;;;2.92;2.65;;;;;;;;;;5059965;28;20212;-83
2022/05/14 04:17:07;;;;;;;3.28;2.65;;;;;;;;;;5059324;28;20206;-84
2022/05/14 04:19:34;;;;;;;2.15;2.05;;;;;;;;;;5059708;28;20217;-84
2022/05/14 04:22:02;;;;;;;3.03;2.45;;;;;;;;;;5057477;28;20647;-83
2022/05/14 04:24:30;;;;;;;1.88;1.77;;;;;;;;;;5059233;28;20202;-83
2022/05/14 04:26:58;;;;;;;1.92;1.73;;;;;;;;;;5058852;28;20219;-83
2022/05/14 04:29:25;;;;;;;2.00;1.90;;;;;;;;;;5059464;28;20229;-83
2022/05/14 04:31:54;;;;;;;2.40;2.20;;;;;;;;;;5058619;28;20233;-84
2022/05/14 04:34:22;;;;;;;1.95;1.85;;;;;;;;;;5059541;28;20765;-83
2022/05/14 04:36:49;;;;;;;1.98;1.88;;;;;;;;;;5059027;28;20234;-84
2022/05/14 04:39:17;;;;;;;2.05;1.95;;;;;;;;;;5058217;28;20710;-84
2022/05/14 04:41:44;;;;;;;1.98;1.88;;;;;;;;;;5056576;28;20218;-84
2022/05/14 04:44:11;;;;;;;2.50;2.30;;;;;;;;;;5057484;28;20198;-84
2022/05/14 04:46:39;;;;;;;2.30;1.75;;;;;;;;;;5057372;28;20296;-84
2022/05/14 04:49:08;;;;;;;3.08;2.20;;;;;;;;;;5058863;28;20221;-84
2022/05/14 04:51:36;;;;;;;2.00;1.90;;;;;;;;;;5059142;28;20292;-84
2022/05/14 04:54:04;;;;;;;2.30;2.10;;;;;;;;;;5058837;28;20296;-84
2022/05/14 04:56:31;;;;;;;6.07;3.92;;;;;;;;;;5058670;28;20205;-83
2022/05/14 04:58:58;;;;;;;2.20;2.00;;;;;;;;;;5058317;28;20218;-84
2022/05/14 05:01:26;;;;;;;3.40;2.67;;;;;;;;;;5059288;28;20229;-83
2022/05/14 05:03:52;;;;;;;4.90;3.40;;;;;;;;;;5057688;28;20206;-83
2022/05/14 05:06:23;;;;;;;1.90;1.80;;;;;;;;;;5057205;28;20209;-83
2022/05/14 05:08:52;;;;;;;2.13;2.03;;;;;;;;;;5057227;28;20221;-83
2022/05/14 05:11:20;;;;;;;2.00;1.90;;;;;;;;;;5058395;28;20213;-84
2022/05/14 05:13:48;;;;;;;2.55;2.33;;;;;;;;;;5056939;28;20197;-83
2022/05/14 05:16:15;;;;;;;2.22;2.08;;;;;;;;;;5058215;28;20671;-83
2022/05/14 05:18:43;;;;;;;2.60;2.40;;;;;;;;;;5056362;28;20739;-77
2022/05/14 05:21:10;;;;;;;3.08;2.38;;;;;;;;;;5052063;28;20205;-77
2022/05/14 05:23:39;;;;;;;4.82;2.40;;;;;;;;;;5051435;28;20223;-78
2022/05/14 05:26:06;;;;;;;3.10;2.83;;;;;;;;;;5052119;28;20677;-78
2022/05/14 05:28:34;;;;;;;2.75;2.55;;;;;;;;;;5051857;28;20202;-77
2022/05/14 05:31:02;;;;;;;2.97;2.78;;;;;;;;;;5052382;28;20205;-77
2022/05/14 05:33:29;;;;;;;2.35;2.15;;;;;;;;;;5051357;28;20206;-78
2022/05/14 05:35:56;;;;;;;1.80;1.70;;;;;;;;;;5052093;28;20202;-77
2022/05/14 05:38:24;;;;;;;2.05;1.95;;;;;;;;;;5052079;28;20207;-77
2022/05/14 05:40:54;;;;;;;3.28;3.00;;;;;;;;;;5052238;28;20204;-77
2022/05/14 05:43:21;;;;;;;3.08;2.10;;;;;;;;;;5051268;28;20222;-77
2022/05/14 05:45:50;;;;;;;2.40;2.20;;;;;;;;;;5051827;28;20673;-78
2022/05/14 05:48:17;;;;;;;4.57;2.78;;;;;;;;;;5052057;28;20301;-78
2022/05/14 05:50:48;;;;;;;2.90;2.63;;;;;;;;;;5052315;28;20217;-78
2022/05/14 05:53:16;;;;;;;3.42;2.70;;;;;;;;;;5051757;28;20292;-77
2022/05/14 05:58:31;;;;;;;2.90;2.20;;;;;;;;;;5050776;28;20220;-78
2022/05/14 06:00:59;;;;;;;3.25;2.10;;;;;;;;;;5052454;28;20200;-78
2022/05/14 06:03:26;;;;;;;2.35;2.15;;;;;;;;;;5051484;28;20221;-77
2022/05/14 06:05:54;;;;;;;2.53;2.00;;;;;;;;;;5051480;28;20673;-77
2022/05/14 06:08:22;;;;;;;2.78;2.50;;;;;;;;;;5051634;28;20201;-77
2022/05/14 06:10:49;;;;;;;2.22;2.03;;;;;;;;;;5051629;28;20205;-77
2022/05/14 06:13:17;;;;;;;2.83;2.63;;;;;;;;;;5051010;28;20193;-77
2022/05/14 06:15:46;;;;;;;2.35;2.15;;;;;;;;;;5051415;28;20646;-77
2022/05/14 06:18:13;;;;;;;2.15;1.95;;;;;;;;;;5051695;28;20308;-77
2022/05/14 06:20:42;;;;;;;2.92;2.55;;;;;;;;;;5050988;28;20229;-77
2022/05/14 06:23:09;;;;;;;2.47;2.28;;;;;;;;;;5050544;28;20232;-77
2022/05/14 06:25:37;;;;;;;2.47;2.22;;;;;;;;;;5051514;28;20201;-77
2022/05/14 06:28:05;;;;;;;3.38;2.47;;;;;;;;;;5051255;28;20212;-77
2022/05/14 06:30:33;;;;;;;2.60;2.42;;;;;;;;;;5051124;28;20222;-77
2022/05/14 06:33:05;;;;;;;3.70;2.30;;;;;;;;;;5050876;28;20197;-78
2022/05/14 06:35:33;;;;;;;2.03;1.92;;;;;;;;;;5051597;28;20201;-77
2022/05/14 06:38:01;;;;;;;3.45;2.55;;;;;;;;;;5051482;28;20205;-77
2022/05/14 06:40:28;;;;;;;4.53;3.22;;;;;;;;;;5051699;28;20222;-77
2022/05/14 06:42:56;;;;;;;4.10;2.65;;;;;;;;;;5050777;28;20226;-78
2022/05/14 06:45:24;;;;;;;3.40;2.72;;;;;;;;;;5051591;28;20206;-77
2022/05/14 06:47:52;;;;;;;3.30;3.00;;;;;;;;;;5051091;28;20206;-77
2022/05/14 06:50:21;;;;;;;3.45;2.70;;;;;;;;;;5051110;28;20222;-77
2022/05/14 06:53:04;;;;;;;4.38;3.40;;;;;;;;;;5050705;28;20228;-77
2022/05/14 06:55:36;;;;;;;5.80;3.38;;;;;;;;;;5051378;28;20678;-78
2022/05/14 06:58:04;;;;;;;3.17;2.88;;;;;;;;;;5049783;28;20559;-77
2022/05/14 07:00:32;;;;;;;3.03;2.72;;;;;;;;;;5051516;28;20593;-77
2022/05/14 07:08:27;;;;;;;5.97;3.40;;;;;;;;;;5050941;28;20212;-78
2022/05/14 07:10:54;;;;;;;4.50;3.30;;;;;;;;;;5054674;28;20197;-77
2022/05/14 07:13:21;;;;;;;3.55;2.85;;;;;;;;;;5054083;28;20194;-77
2022/05/14 07:15:49;;;;;;;2.88;2.67;;;;;;;;;;5054626;28;20586;-78
2022/05/14 07:18:16;;;;;;;3.08;2.78;;;;;;;;;;5054630;28;20211;-78
2022/05/14 07:20:45;;;;;;;3.22;2.90;;;;;;;;;;5055095;28;20217;-78
2022/05/14 07:23:13;;;;;;;2.30;2.10;;;;;;;;;;5053736;28;20230;-77
2022/05/14 07:25:40;;;;;;;4.45;2.80;;;;;;;;;;5055120;28;20201;-77
2022/05/14 07:28:08;;;;;;;2.83;2.63;;;;;;;;;;5054650;28;20208;-78
2022/05/14 07:30:36;;;;;;;4.57;2.70;;;;;;;;;;5055143;28;20271;-78
2022/05/14 07:33:03;;;;;;;3.42;2.70;;;;;;;;;;5053795;28;20200;-78
2022/05/14 07:35:31;;;;;;;3.40;2.58;;;;;;;;;;5054844;28;20232;-78
2022/05/14 07:38:01;;;;;;;3.40;2.67;;;;;;;;;;5055178;28;20197;-77
2022/05/14 07:40:30;;;;;;;2.33;2.13;;;;;;;;;;5054549;28;20592;-78
2022/05/14 07:43:02;;;;;;;2.45;2.13;;;;;;;;;;5053971;28;20229;-78
2022/05/14 07:45:35;;;;;;;2.30;2.10;;;;;;;;;;5054780;28;20212;-78
2022/05/14 07:48:06;;;;;;;3.70;2.53;;;;;;;;;;5054677;28;20198;-78
2022/05/14 07:50:33;;;;;;;5.28;2.70;;;;;;;;;;5055073;28;20229;-78
2022/05/14 07:53:03;;;;;;;4.72;3.17;;;;;;;;;;5053611;28;20208;-78
2022/05/14 07:55:33;;;;;;;3.00;2.70;;;;;;;;;;5053654;28;20202;-78
2022/05/14 07:58:00;;;;;;;3.13;2.83;;;;;;;;;;5053602;28;20251;-78
2022/05/14 08:00:28;;;;;;;6.43;4.50;;;;;;;;;;5054374;28;20225;-78
2022/05/14 08:02:55;;;;;;;6.53;3.97;;;;;;;;;;5053882;28;20201;-78
2022/05/14 08:05:22;;;;;;;6.38;3.35;;;;;;;;;;5054407;28;20229;-78
2022/05/14 08:07:50;;;;;;;3.15;2.50;;;;;;;;;;5054048;28;20201;-78
2022/05/14 08:10:19;;;;;;;3.33;2.75;;;;;;;;;;5054080;28;20225;-78
2022/05/14 08:12:53;;;;;;;2.40;2.20;;;;;;;;;;5053229;28;20205;-78
2022/05/14 08:15:21;;;;;;;2.53;1.98;;;;;;;;;;5054441;28;20206;-78
2022/05/14 08:17:49;;;;;;;3.53;2.65;;;;;;;;;;5053969;28;20296;-79
2022/05/14 08:20:17;;;;;;;4.57;2.67;;;;;;;;;;5053350;28;20232;-79
2022/05/14 08:25:32;;;;;;;2.95;1.83;;;;;;;;;;5053352;28;20279;-78
2022/05/14 08:28:00;;;;;;;5.07;2.83;;;;;;;;;;5054094;28;20201;-78
2022/05/14 08:30:31;;;;;;;6.20;4.00;;;;;;;;;;5053407;28;20316;-79
2022/05/14 08:32:58;;;;;;;5.28;3.10;;;;;;;;;;5053391;28;20686;-80
2022/05/14 08:35:27;;;;;;;2.90;2.00;;;;;;;;;;5053255;28;20666;-80
2022/05/14 08:37:56;;;;;;;5.85;3.38;;;;;;;;;;5053445;28;20217;-79
2022/05/14 08:40:28;;;;;;;2.50;2.30;;;;;;;;;;5052172;28;20221;-81
2022/05/14 08:43:01;;;;;;;4.30;3.50;;;;;;;;;;5052785;28;20684;-79
2022/05/14 08:45:33;;;;;;;2.55;2.13;;;;;;;;;;5053242;28;20636;-79
2022/05/14 08:48:03;;;;;;;3.28;2.45;;;;;;;;;;5053150;28;20209;-80
2022/05/14 08:50:33;;;;;;;3.00;2.47;;;;;;;;;;5053369;28;20248;-79
2022/05/14 08:53:04;;;;;;;4.57;3.55;;;;;;;;;;5052291;28;20666;-79
2022/05/14 08:55:38;;;;;;;5.43;2.80;;;;;;;;;;5053069;28;20763;-79
2022/05/14 08:58:15;;;;;;;3.67;3.20;;;;;;;;;;5053178;28;20263;-79
2022/05/14 09:00:42;;;;;;;2.92;2.47;;;;;;;;;;5052586;28;20705;-79
2022/05/14 09:03:09;;;;;;;2.92;1.70;;;;;;;;;;5051693;28;20236;-80
2022/05/14 09:05:39;;;;;;;3.17;2.10;;;;;;;;;;5053557;28;20221;-80
2022/05/14 09:08:07;;;;;;;2.10;1.80;;;;;;;;;;5053684;28;20703;-79
2022/05/14 09:10:39;;;;;;;3.03;1.70;;;;;;;;;;5054345;28;20222;-80
2022/05/14 09:13:16;;;;;;;3.95;2.72;;;;;;;;;;5053905;28;20212;-80
2022/05/14 09:15:48;;;;;;;3.40;2.70;;;;;;;;;;5053578;28;20201;-79
2022/05/14 09:18:22;;;;;;;2.03;1.80;;;;;;;;;;5053489;28;20289;-79
2022/05/14 09:20:57;;;;;;;1.55;1.45;;;;;;;;;;5053887;28;20213;-79
2022/05/14 09:23:29;;;;;;;2.85;1.60;;;;;;;;;;5052802;28;20209;-79
2022/05/14 09:25:57;;;;;;;4.13;1.98;;;;;;;;;;5053924;28;20640;-79
2022/05/14 09:28:37;;;;;;;2.88;2.30;;;;;;;;;;5053640;28;20339;-79
2022/05/14 09:31:05;;;;;;;2.28;2.03;;;;;;;;;;5053908;28;20205;-79
2022/05/14 09:33:39;;;;;;;5.05;2.45;;;;;;;;;;5052322;28;20206;-79
2022/05/14 09:36:11;;;;;;;2.28;2.08;;;;;;;;;;5053913;28;20232;-80
2022/05/14 09:38:39;;;;;;;3.55;1.95;;;;;;;;;;5053481;28;20211;-80
2022/05/14 09:41:13;;;;;;;1.70;1.60;;;;;;;;;;5053280;28;20586;-79
2022/05/14 09:43:41;;;;;;;5.13;2.10;;;;;;;;;;5053087;28;20233;-79
2022/05/14 09:46:12;;;;;;;4.13;2.55;;;;;;;;;;5052854;28;20236;-80
2022/05/14 09:48:48;;;;;;;3.40;2.83;;;;;;;;;;5054211;28;20206;-80
2022/05/14 09:51:28;;;;;;;4.00;2.80;;;;;;;;;;5054064;28;20205;-79
2022/05/14 09:53:55;;;;;;;4.57;1.92;;;;;;;;;;5044606;28;20203;-79
2022/05/14 09:56:49;;;;;;;4.15;2.45;;;;;;;;;;5036917;28;20205;-80
2022/05/14 09:59:35;;;;;;;1.83;1.73;;;;;;;;;;5033847;28;20272;-80
2022/05/14 10:02:11;;;;;;;2.35;2.15;;;;;;;;;;5032635;28;20692;-79
2022/05/14 10:04:59;;;;;;;5.07;1.67;;;;;;;;;;5033737;28;20222;-80
2022/05/14 10:07:34;;;;;;;1.83;1.65;;;;;;;;;;5033097;28;20667;-80
2022/05/14 10:10:13;;;;;;;1.70;1.50;;;;;;;;;;5033349;28;20377;-79
2022/05/14 10:12:44;;;;;;;1.58;1.48;;;;;;;;;;5032309;28;20207;-79
2022/05/14 10:15:25;;;;;;;2.08;1.58;;;;;;;;;;5041397;28;20205;-79
2022/05/14 10:18:00;;;;;;;1.42;1.33;;;;;;;;;;5053006;28;20212;-80
2022/05/14 10:20:56;;;;;;;3.70;1.83;;;;;;;;;;5053201;28;20897;-80
2022/05/14 10:26:50;;;;;;;3.00;2.25;;;;;;;;;;5052629;28;20231;-79
2022/05/14 10:29:45;;;;;;;2.30;2.13;;;;;;;;;;5052687;28;20225;-79
2022/05/14 10:32:17;;;;;;;2.75;1.90;;;;;;;;;;5038782;28;20209;-80
2022/05/14 10:34:49;;;;;;;2.03;1.55;;;;;;;;;;5053001;28;20232;-79
2022/05/14 10:37:29;;;;;;;2.83;1.63;;;;;;;;;;5052822;28;20593;-80
2022/05/14 10:40:07;;;;;;;1.88;1.70;;;;;;;;;;5053506;28;20225;-80
2022/05/14 10:42:49;;;;;;;2.15;1.33;;;;;;;;;;5051944;28;20565;-80
2022/05/14 10:45:20;;;;;;;2.17;1.30;;;;;;;;;;5056069;28;20690;-80
2022/05/14 10:47:58;;;;;;;1.75;1.50;;;;;;;;;;5056622;28;20202;-80
2022/05/14 10:50:25;;;;;;;3.85;1.90;;;;;;;;;;5056372;28;20225;-80
2022/05/14 10:52:55;;;;;;;4.07;2.20;;;;;;;;;;5056110;28;20206;-80
2022/05/14 10:55:25;;;;;;;2.22;1.65;;;;;;;;;;5056990;28;20846;-79
2022/05/14 10:57:57;;;;;;;2.53;2.20;;;;;;;;;;5056590;28;20213;-79
2022/05/14 11:00:39;;;;;;;1.40;1.30;;;;;;;;;;5056466;28;20222;-79
2022/05/14 11:03:22;;;;;;;3.05;1.92;;;;;;;;;;5055596;28;20233;-80
2022/05/14 11:05:55;;;;;;;2.00;1.67;;;;;;;;;;5056195;28;20222;-80
2022/05/14 11:08:32;;;;;;;2.15;1.30;;;;;;;;;;5056373;28;20208;-80
2022/05/14 11:11:15;;;;;;;1.50;1.40;;;;;;;;;;5056346;28;20202;-80
2022/05/14 11:13:55;;;;;;;1.55;1.45;;;;;;;;;;5055853;28;20820;-79
2022/05/14 11:16:22;;;;;;;2.00;1.70;;;;;;;;;;5056144;28;20259;-80
2022/05/14 11:18:54;;;;;;;2.13;1.30;;;;;;;;;;5055982;28;20275;-80
2022/05/14 11:21:35;;;;;;;2.55;1.60;;;;;;;;;;5055649;28;20693;-80
2022/05/14 11:24:03;;;;;;;1.58;1.48;;;;;;;;;;5054737;28;20218;-79
2022/05/14 11:26:31;;;;;;;2.10;1.73;;;;;;;;;;5055813;28;20222;-80
2022/05/14 11:29:10;;;;;;;2.30;2.05;;;;;;;;;;5054883;28;20604;-79
2022/05/14 11:31:40;;;;;;;1.42;1.40;;;;;;;;;;5055437;28;20209;-79
2022/05/14 11:34:19;;;;;;;1.30;1.20;;;;;;;;;;5054948;28;20205;-79
2022/05/14 11:36:50;;;;;;;1.58;1.30;;;;;;;;;;5055727;28;20202;-79
2022/05/14 11:39:31;;;;;;;1.85;1.40;;;;;;;;;;5054969;28;20222;-79
2022/05/14 11:42:29;;;;;;;3.35;2.25;;;;;;;;;;5054795;28;20227;-79
2022/05/14 11:45:05;;;;;;;1.40;1.30;;;;;;;;;;5053335;28;20669;-80
2022/05/14 11:47:58;;;;;;;2.35;1.60;;;;;;;;;;5055053;28;20208;-79
2022/05/14 11:50:31;;;;;;;3.33;1.52;;;;;;;;;;5055180;28;20232;-80
2022/05/14 11:53:23;;;;;;;1.65;1.48;;;;;;;;;;5054500;28;20202;-80
2022/05/14 11:55:54;;;;;;;1.60;1.50;;;;;;;;;;5054101;28;20198;-80
2022/05/14 11:58:29;;;;;;;2.13;1.50;;;;;;;;;;5054804;28;20682;-79
2022/05/14 12:00:57;;;;;;;2.40;2.17;;;;;;;;;;5054864;28;20207;-79
2022/05/14 12:03:29;;;;;;;1.80;1.70;;;;;;;;;;5053905;28;20205;-79
2022/05/14 12:06:03;;;;;;;1.77;1.52;;;;;;;;;;5054301;28;20589;-79
2022/05/14 12:08:56;;;;;;;3.03;1.67;;;;;;;;;;5054831;28;20201;-79
2022/05/14 12:11:30;;;;;;;1.83;1.67;;;;;;;;;;5054379;28;20223;-79
2022/05/14 12:14:09;;;;;;;1.88;1.70;;;;;;;;;;5054544;28;20205;-80
2022/05/14 12:16:39;;;;;;;2.85;1.83;;;;;;;;;;5054564;28;20205;-79
2022/05/14 12:19:14;;;;;;;1.85;1.30;;;;;;;;;;5054363;28;20221;-78
2022/05/14 12:21:44;;;;;;;2.95;2.20;;;;;;;;;;5053838;28;20359;-79
2022/05/14 12:24:20;;;;;;;2.35;1.70;;;;;;;;;;5054286;28;20678;-79
2022/05/14 12:26:48;;;;;;;1.98;1.40;;;;;;;;;;5054466;28;20229;-80
2022/05/14 12:29:21;;;;;;;1.10;1.00;;;;;;;;;;5054744;28;20222;-80
2022/05/14 12:34:44;;;;;;;2.15;1.40;;;;;;;;;;5054387;28;20573;-79
2022/05/14 12:37:26;;;;;;;2.78;1.27;;;;;;;;;;5054460;28;20633;-80
2022/05/14 12:39:57;;;;;;;2.80;1.55;;;;;;;;;;5054428;28;20233;-79
2022/05/14 12:42:30;;;;;;;1.70;1.58;;;;;;;;;;5053951;28;20209;-79
2022/05/14 12:44:59;;;;;;;1.75;1.45;;;;;;;;;;5054162;28;20241;-79
2022/05/14 12:47:30;;;;;;;2.63;1.50;;;;;;;;;;5054305;28;20712;-78
2022/05/14 12:49:58;;;;;;;2.45;1.65;;;;;;;;;;5053498;28;20232;-79
2022/05/14 12:52:32;;;;;;;1.60;1.30;;;;;;;;;;5053315;28;20220;-79
2022/05/14 12:55:04;;;;;;;1.88;1.38;;;;;;;;;;5053834;28;20250;-79
2022/05/14 12:57:34;;;;;;;3.65;1.65;;;;;;;;;;5054281;28;20201;-79
2022/05/14 13:00:02;;;;;;;2.35;1.50;;;;;;;;;;5053924;28;20228;-80
2022/05/14 13:02:32;;;;;;;1.40;1.30;;;;;;;;;;5052847;28;20201;-79
2022/05/14 13:05:03;;;;;;;2.15;1.38;;;;;;;;;;5053760;28;20205;-79
2022/05/14 13:07:34;;;;;;;2.33;1.60;;;;;;;;;;5052721;28;20229;-79
2022/05/14 13:10:01;;;;;;;1.75;1.65;;;;;;;;;;5054070;28;20222;-79
2022/05/14 13:12:31;;;;;;;1.02;1.00;;;;;;;;;;5053598;28;20197;-79
2022/05/14 13:15:02;;;;;;;1.70;1.58;;;;;;;;;;5054024;28;20216;-80
2022/05/14 13:17:35;;;;;;;1.83;1.67;;;;;;;;;;5053955;28;20198;-79
2022/05/14 13:20:06;;;;;;;1.45;1.30;;;;;;;;;;5054388;28;20221;-80
2022/05/14 13:22:40;;;;;;;1.77;1.67;;;;;;;;;;5052922;28;20236;-80
2022/05/14 13:25:29;;;;;;;1.50;1.40;;;;;;;;;;5054550;28;20620;-81
2022/05/14 13:28:08;;;;;;;3.10;2.42;;;;;;;;;;5054622;28;20620;-79
2022/05/14 13:30:36;;;;;;;2.35;1.45;;;;;;;;;;5054782;28;20221;-80
2022/05/14 13:33:07;;;;;;;1.00;1.00;;;;;;;;;;5054179;28;20229;-80
2022/05/14 13:38:29;;;;;;;1.92;1.50;;;;;;;;;;5054427;28;20211;-80
2022/05/14 13:40:58;;;;;;;1.88;1.10;;;;;;;;;;5054249;28;20590;-80
2022/05/14 13:43:32;;;;;;;1.40;1.30;;;;;;;;;;5053539;28;20206;-80
2022/05/14 13:46:03;;;;;;;2.05;1.40;;;;;;;;;;5053651;28;20205;-80
2022/05/14 13:48:38;;;;;;;3.63;2.15;;;;;;;;;;5053404;28;20221;-77
2022/05/14 13:51:09;;;;;;;2.33;1.70;;;;;;;;;;5053467;28;20209;-78
2022/05/14 13:53:40;;;;;;;3.30;1.98;;;;;;;;;;5052149;28;20201;-78
2022/05/14 13:56:11;;;;;;;1.95;1.50;;;;;;;;;;5053317;28;20217;-78
2022/05/14 13:58:42;;;;;;;4.22;2.15;;;;;;;;;;5053914;28;20582;-78
2022/05/14 14:01:15;;;;;;;1.55;1.38;;;;;;;;;;5053394;28;20189;-78
2022/05/14 14:03:49;;;;;;;2.28;1.65;;;;;;;;;;5052353;28;20197;-78
2022/05/14 14:06:18;;;;;;;2.03;1.40;;;;;;;;;;5054030;28;20244;-78
2022/05/14 14:08:47;;;;;;;1.30;1.20;;;;;;;;;;5053720;28;20217;-79
2022/05/14 14:11:14;;;;;;;1.40;1.25;;;;;;;;;;5054195;28;20204;-79
2022/05/14 14:13:42;;;;;;;2.05;1.65;;;;;;;;;;5054061;28;20202;-78
2022/05/14 14:16:10;;;;;;;2.05;1.23;;;;;;;;;;5053828;28;20576;-79
2022/05/14 14:18:37;;;;;;;2.75;2.03;;;;;;;;;;5054702;28;20200;-78
2022/05/14 14:21:09;;;;;;;1.98;1.50;;;;;;;;;;5057153;28;20708;-79
2022/05/14 14:23:39;;;;;;;2.47;1.42;;;;;;;;;;5057302;28;20220;-79
2022/05/14 14:26:08;;;;;;;2.67;1.65;;;;;;;;;;5056936;28;20592;-79
2022/05/14 14:28:36;;;;;;;2.20;1.27;;;;;;;;;;5057407;28;20229;-78
2022/05/14 14:31:05;;;;;;;2.08;1.48;;;;;;;;;;5057203;28;20212;-79
2022/05/14 14:33:35;;;;;;;2.15;1.52;;;;;;;;;;5056528;28;20227;-79
2022/05/14 14:36:04;;;;;;;1.77;1.60;;;;;;;;;;5056837;28;20202;-79
2022/05/14 14:38:31;;;;;;;1.40;1.30;;;;;;;;;;5056692;28;20288;-79
2022/05/14 14:40:59;;;;;;;2.22;1.60;;;;;;;;;;5056591;28;20197;-79
2022/05/14 14:43:29;;;;;;;1.88;1.55;;;;;;;;;;5055625;28;20205;-79
2022/05/14 14:45:57;;;;;;;2.95;1.92;;;;;;;;;;5056781;28;20292;-79
2022/05/14 14:48:27;;;;;;;5.35;1.80;;;;;;;;;;5055008;28;20611;-79
2022/05/14 14:50:54;;;;;;;2.60;1.58;;;;;;;;;;5056552;28;20198;-78
2022/05/14 14:53:22;;;;;;;2.97;1.60;;;;;;;;;;5055407;28;20208;-79
2022/05/14 14:55:49;;;;;;;1.48;1.27;;;;;;;;;;5054885;28;20202;-78
2022/05/14 14:58:17;;;;;;;2.20;1.40;;;;;;;;;;5056075;28;20209;-79
2022/05/14 15:00:48;;;;;;;3.65;2.13;;;;;;;;;;5055851;28;20222;-77
2022/05/14 15:03:21;;;;;;;1.67;1.10;;;;;;;;;;5056999;28;20198;-78
2022/05/14 15:05:51;;;;;;;1.95;1.33;;;;;;;;;;5057187;28;20624;-78
2022/05/14 15:08:22;;;;;;;2.13;1.95;;;;;;;;;;5055963;28;20222;-79
2022/05/14 15:10:50;;;;;;;2.08;1.88;;;;;;;;;;5056438;28;20226;-79
2022/05/14 15:13:20;;;;;;;2.33;1.60;;;;;;;;;;5055601;28;20208;-79
2022/05/14 15:15:49;;;;;;;4.13;2.25;;;;;;;;;;5056165;28;20213;-78
2022/05/14 15:18:16;;;;;;;2.22;1.70;;;;;;;;;;5055988;28;20202;-78
2022/05/14 15:20:44;;;;;;;1.50;1.40;;;;;;;;;;5057166;28;20228;-78
2022/05/14 15:23:12;;;;;;;3.50;1.80;;;;;;;;;;5055076;28;20637;-78
2022/05/14 15:25:39;;;;;;;4.22;2.00;;;;;;;;;;5056619;28;20231;-79